sensor_id;sensor_type;location;lat;lon;timestamp;P1;durP1;ratioP1;P2;durP2;ratioP2
75156;SDS011;63736;50.076;8.198;2023-09-12T00:02:02;812.30;;;191.30;;
75156;SDS011;63736;50.076;8.198;2023-09-12T00:04:27;807.90;;;190.27;;
75156;SDS011;63736;50.076;8.198;2023-09-12T00:06:53;809.53;;;192.30;;
75156;SDS011;63736;50.076;8.198;2023-09-12T00:09:18;811.43;;;193.47;;
75156;SDS011;63736;50.076;8.198;2023-09-12T00:11:43;806.23;;;188.83;;
75156;SDS011;63736;50.076;8.198;2023-09-12T00:14:09;805.07;;;189.73;;
75156;SDS011;63736;50.076;8.198;2023-09-12T00:16:34;802.77;;;189.90;;
75156;SDS011;63736;50.076;8.198;2023-09-12T00:19:00;801.80;;;191.00;;
75156;SDS011;63736;50.076;8.198;2023-09-12T00:21:25;798.10;;;188.70;;
75156;SDS011;63736;50.076;8.198;2023-09-12T00:23:50;796.93;;;188.17;;
75156;SDS011;63736;50.076;8.198;2023-09-12T00:26:16;799.13;;;188.83;;
75156;SDS011;63736;50.076;8.198;2023-09-12T00:28:41;801.80;;;192.17;;
75156;SDS011;63736;50.076;8.198;2023-09-12T00:31:06;799.13;;;189.77;;
75156;SDS011;63736;50.076;8.198;2023-09-12T00:33:31;799.37;;;188.97;;
75156;SDS011;63736;50.076;8.198;2023-09-12T00:35:58;798.57;;;189.90;;
75156;SDS011;63736;50.076;8.198;2023-09-12T00:38:23;796.33;;;188.50;;
75156;SDS011;63736;50.076;8.198;2023-09-12T00:40:48;792.73;;;186.73;;
75156;SDS011;63736;50.076;8.198;2023-09-12T00:43:13;791.27;;;187.60;;
75156;SDS011;63736;50.076;8.198;2023-09-12T00:45:40;789.90;;;186.75;;
75156;SDS011;63736;50.076;8.198;2023-09-12T00:48:06;790.10;;;187.00;;
75156;SDS011;63736;50.076;8.198;2023-09-12T00:50:32;790.83;;;186.13;;
75156;SDS011;63736;50.076;8.198;2023-09-12T00:52:59;796.00;;;187.80;;
75156;SDS011;63736;50.076;8.198;2023-09-12T00:55:25;796.40;;;187.23;;
75156;SDS011;63736;50.076;8.198;2023-09-12T00:57:51;797.42;;;188.38;;
75156;SDS011;63736;50.076;8.198;2023-09-12T01:00:18;796.10;;;186.68;;
75156;SDS011;63736;50.076;8.198;2023-09-12T01:02:44;810.70;;;190.27;;
75156;SDS011;63736;50.076;8.198;2023-09-12T01:05:11;817.03;;;191.68;;
75156;SDS011;63736;50.076;8.198;2023-09-12T01:07:38;843.23;;;197.63;;
75156;SDS011;63736;50.076;8.198;2023-09-12T01:10:04;865.47;;;206.55;;
75156;SDS011;63736;50.076;8.198;2023-09-12T01:12:30;849.65;;;202.93;;
75156;SDS011;63736;50.076;8.198;2023-09-12T01:14:56;840.97;;;200.40;;
75156;SDS011;63736;50.076;8.198;2023-09-12T01:17:21;830.23;;;197.43;;
75156;SDS011;63736;50.076;8.198;2023-09-12T01:19:47;829.00;;;197.45;;
75156;SDS011;63736;50.076;8.198;2023-09-12T01:27:50;832.20;;;198.57;;
75156;SDS011;63736;50.076;8.198;2023-09-12T01:30:17;824.97;;;196.10;;
75156;SDS011;63736;50.076;8.198;2023-09-12T01:32:45;828.72;;;197.50;;
75156;SDS011;63736;50.076;8.198;2023-09-12T01:35:11;828.30;;;197.83;;
75156;SDS011;63736;50.076;8.198;2023-09-12T01:37:36;823.07;;;195.50;;
75156;SDS011;63736;50.076;8.198;2023-09-12T01:40:02;816.50;;;193.37;;
75156;SDS011;63736;50.076;8.198;2023-09-12T01:42:30;819.03;;;195.33;;
75156;SDS011;63736;50.076;8.198;2023-09-12T01:45:00;822.70;;;194.98;;
75156;SDS011;63736;50.076;8.198;2023-09-12T01:47:28;826.78;;;197.18;;
75156;SDS011;63736;50.076;8.198;2023-09-12T01:49:55;826.78;;;196.00;;
75156;SDS011;63736;50.076;8.198;2023-09-12T01:52:23;835.95;;;199.75;;
75156;SDS011;63736;50.076;8.198;2023-09-12T01:54:50;841.70;;;199.40;;
75156;SDS011;63736;50.076;8.198;2023-09-12T01:57:16;852.72;;;202.35;;
75156;SDS011;63736;50.076;8.198;2023-09-12T01:59:45;875.35;;;207.60;;
75156;SDS011;63736;50.076;8.198;2023-09-12T02:02:11;901.43;;;213.67;;
75156;SDS011;63736;50.076;8.198;2023-09-12T02:04:36;976.57;;;236.07;;
75156;SDS011;63736;50.076;8.198;2023-09-12T02:07:01;948.63;;;228.70;;
75156;SDS011;63736;50.076;8.198;2023-09-12T02:09:27;927.03;;;222.70;;
75156;SDS011;63736;50.076;8.198;2023-09-12T02:11:52;915.00;;;219.03;;
75156;SDS011;63736;50.076;8.198;2023-09-12T02:14:17;923.33;;;221.80;;
75156;SDS011;63736;50.076;8.198;2023-09-12T02:16:45;924.40;;;223.52;;
75156;SDS011;63736;50.076;8.198;2023-09-12T02:19:10;920.63;;;221.10;;
75156;SDS011;63736;50.076;8.198;2023-09-12T02:21:35;921.63;;;221.13;;
75156;SDS011;63736;50.076;8.198;2023-09-12T02:24:01;934.93;;;226.27;;
75156;SDS011;63736;50.076;8.198;2023-09-12T02:26:26;943.67;;;226.47;;
75156;SDS011;63736;50.076;8.198;2023-09-12T02:28:52;962.05;;;231.98;;
75156;SDS011;63736;50.076;8.198;2023-09-12T02:31:17;1026.70;;;250.53;;
75156;SDS011;63736;50.076;8.198;2023-09-12T02:33:42;983.67;;;238.60;;
75156;SDS011;63736;50.076;8.198;2023-09-12T02:36:08;974.27;;;234.93;;
75156;SDS011;63736;50.076;8.198;2023-09-12T02:38:33;971.40;;;234.47;;
75156;SDS011;63736;50.076;8.198;2023-09-12T02:40:58;962.70;;;233.50;;
75156;SDS011;63736;50.076;8.198;2023-09-12T02:43:24;957.20;;;230.30;;
75156;SDS011;63736;50.076;8.198;2023-09-12T02:45:49;955.23;;;229.70;;
75156;SDS011;63736;50.076;8.198;2023-09-12T02:48:14;957.27;;;230.33;;
75156;SDS011;63736;50.076;8.198;2023-09-12T02:50:39;957.90;;;230.83;;
75156;SDS011;63736;50.076;8.198;2023-09-12T02:53:05;960.73;;;231.50;;
75156;SDS011;63736;50.076;8.198;2023-09-12T02:55:31;964.60;;;232.85;;
75156;SDS011;63736;50.076;8.198;2023-09-12T02:57:56;970.53;;;234.97;;
75156;SDS011;63736;50.076;8.198;2023-09-12T03:00:22;973.57;;;233.77;;
75156;SDS011;63736;50.076;8.198;2023-09-12T03:02:47;976.17;;;236.97;;
75156;SDS011;63736;50.076;8.198;2023-09-12T03:05:12;974.80;;;235.17;;
75156;SDS011;63736;50.076;8.198;2023-09-12T03:07:38;978.67;;;237.53;;
75156;SDS011;63736;50.076;8.198;2023-09-12T03:10:03;971.80;;;234.77;;
75156;SDS011;63736;50.076;8.198;2023-09-12T03:12:28;968.53;;;233.77;;
75156;SDS011;63736;50.076;8.198;2023-09-12T03:14:54;964.20;;;233.40;;
75156;SDS011;63736;50.076;8.198;2023-09-12T03:17:20;956.73;;;230.37;;
75156;SDS011;63736;50.076;8.198;2023-09-12T03:19:45;956.70;;;230.00;;
75156;SDS011;63736;50.076;8.198;2023-09-12T03:22:10;956.30;;;229.90;;
75156;SDS011;63736;50.076;8.198;2023-09-12T03:24:35;955.23;;;230.13;;
75156;SDS011;63736;50.076;8.198;2023-09-12T03:27:01;955.33;;;231.70;;
75156;SDS011;63736;50.076;8.198;2023-09-12T03:29:26;954.97;;;230.73;;
75156;SDS011;63736;50.076;8.198;2023-09-12T03:31:51;955.37;;;233.23;;
75156;SDS011;63736;50.076;8.198;2023-09-12T03:34:16;954.43;;;232.00;;
75156;SDS011;63736;50.076;8.198;2023-09-12T03:36:42;948.30;;;228.87;;
75156;SDS011;63736;50.076;8.198;2023-09-12T03:39:07;943.30;;;227.53;;
75156;SDS011;63736;50.076;8.198;2023-09-12T03:41:34;944.92;;;228.48;;
75156;SDS011;63736;50.076;8.198;2023-09-12T03:43:59;942.33;;;226.85;;
75156;SDS011;63736;50.076;8.198;2023-09-12T03:46:25;944.57;;;228.50;;
75156;SDS011;63736;50.076;8.198;2023-09-12T03:48:50;940.60;;;228.63;;
75156;SDS011;63736;50.076;8.198;2023-09-12T03:51:15;936.67;;;227.70;;
75156;SDS011;63736;50.076;8.198;2023-09-12T03:53:41;937.77;;;227.70;;
75156;SDS011;63736;50.076;8.198;2023-09-12T03:56:06;932.90;;;226.40;;
75156;SDS011;63736;50.076;8.198;2023-09-12T03:58:33;930.80;;;224.77;;
75156;SDS011;63736;50.076;8.198;2023-09-12T04:00:58;935.13;;;227.63;;
75156;SDS011;63736;50.076;8.198;2023-09-12T04:03:24;928.75;;;224.52;;
75156;SDS011;63736;50.076;8.198;2023-09-12T04:05:50;929.03;;;225.47;;
75156;SDS011;63736;50.076;8.198;2023-09-12T04:08:15;931.33;;;225.40;;
75156;SDS011;63736;50.076;8.198;2023-09-12T04:10:41;927.53;;;224.37;;
75156;SDS011;63736;50.076;8.198;2023-09-12T04:13:07;928.75;;;223.80;;
75156;SDS011;63736;50.076;8.198;2023-09-12T04:15:32;926.23;;;222.90;;
75156;SDS011;63736;50.076;8.198;2023-09-12T04:17:58;928.65;;;224.20;;
75156;SDS011;63736;50.076;8.198;2023-09-12T04:20:23;929.03;;;225.77;;
75156;SDS011;63736;50.076;8.198;2023-09-12T04:22:49;924.07;;;222.83;;
75156;SDS011;63736;50.076;8.198;2023-09-12T04:25:14;923.87;;;222.77;;
75156;SDS011;63736;50.076;8.198;2023-09-12T04:27:40;922.40;;;222.50;;
75156;SDS011;63736;50.076;8.198;2023-09-12T04:30:06;921.13;;;221.82;;
75156;SDS011;63736;50.076;8.198;2023-09-12T04:32:32;922.47;;;222.25;;
75156;SDS011;63736;50.076;8.198;2023-09-12T04:34:57;918.87;;;221.50;;
75156;SDS011;63736;50.076;8.198;2023-09-12T04:37:23;922.20;;;222.97;;
75156;SDS011;63736;50.076;8.198;2023-09-12T04:39:48;919.70;;;221.33;;
75156;SDS011;63736;50.076;8.198;2023-09-12T04:42:13;919.33;;;221.23;;
75156;SDS011;63736;50.076;8.198;2023-09-12T04:44:39;920.83;;;220.97;;
75156;SDS011;63736;50.076;8.198;2023-09-12T04:47:05;923.95;;;223.35;;
75156;SDS011;63736;50.076;8.198;2023-09-12T04:49:31;919.30;;;223.10;;
75156;SDS011;63736;50.076;8.198;2023-09-12T04:51:56;918.60;;;222.90;;
75156;SDS011;63736;50.076;8.198;2023-09-12T04:54:21;912.43;;;220.23;;
75156;SDS011;63736;50.076;8.198;2023-09-12T04:56:47;912.60;;;220.03;;
75156;SDS011;63736;50.076;8.198;2023-09-12T04:59:12;911.43;;;219.90;;
75156;SDS011;63736;50.076;8.198;2023-09-12T05:01:38;912.73;;;220.63;;
75156;SDS011;63736;50.076;8.198;2023-09-12T05:04:03;912.50;;;220.20;;
75156;SDS011;63736;50.076;8.198;2023-09-12T05:06:28;914.30;;;221.88;;
75156;SDS011;63736;50.076;8.198;2023-09-12T05:08:54;910.30;;;220.67;;
75156;SDS011;63736;50.076;8.198;2023-09-12T05:11:19;909.63;;;220.07;;
75156;SDS011;63736;50.076;8.198;2023-09-12T05:13:44;909.73;;;221.30;;
75156;SDS011;63736;50.076;8.198;2023-09-12T05:16:09;907.97;;;219.40;;
75156;SDS011;63736;50.076;8.198;2023-09-12T05:18:35;907.97;;;220.30;;
75156;SDS011;63736;50.076;8.198;2023-09-12T05:21:00;904.17;;;218.47;;
75156;SDS011;63736;50.076;8.198;2023-09-12T05:23:25;905.33;;;218.57;;
75156;SDS011;63736;50.076;8.198;2023-09-12T05:25:51;903.75;;;218.35;;
75156;SDS011;63736;50.076;8.198;2023-09-12T05:28:16;904.17;;;219.67;;
75156;SDS011;63736;50.076;8.198;2023-09-12T05:30:42;905.27;;;220.23;;
75156;SDS011;63736;50.076;8.198;2023-09-12T05:33:08;907.05;;;219.55;;
75156;SDS011;63736;50.076;8.198;2023-09-12T05:35:33;905.67;;;220.10;;
75156;SDS011;63736;50.076;8.198;2023-09-12T05:37:58;904.13;;;218.27;;
75156;SDS011;63736;50.076;8.198;2023-09-12T05:40:23;909.80;;;219.40;;
75156;SDS011;63736;50.076;8.198;2023-09-12T05:42:49;907.87;;;218.87;;
75156;SDS011;63736;50.076;8.198;2023-09-12T05:45:14;911.40;;;219.80;;
75156;SDS011;63736;50.076;8.198;2023-09-12T05:47:39;906.43;;;219.53;;
75156;SDS011;63736;50.076;8.198;2023-09-12T05:50:05;909.33;;;219.53;;
75156;SDS011;63736;50.076;8.198;2023-09-12T05:52:32;907.70;;;218.63;;
75156;SDS011;63736;50.076;8.198;2023-09-12T05:54:57;915.83;;;223.98;;
75156;SDS011;63736;50.076;8.198;2023-09-12T05:57:23;916.63;;;220.97;;
75156;SDS011;63736;50.076;8.198;2023-09-12T05:59:48;912.17;;;219.02;;
75156;SDS011;63736;50.076;8.198;2023-09-12T06:02:14;911.77;;;220.00;;
75156;SDS011;63736;50.076;8.198;2023-09-12T06:04:39;912.20;;;220.07;;
75156;SDS011;63736;50.076;8.198;2023-09-12T06:07:04;911.53;;;219.50;;
75156;SDS011;63736;50.076;8.198;2023-09-12T06:09:30;913.73;;;220.70;;
75156;SDS011;63736;50.076;8.198;2023-09-12T06:11:55;912.27;;;219.87;;
75156;SDS011;63736;50.076;8.198;2023-09-12T06:14:21;913.27;;;220.60;;
75156;SDS011;63736;50.076;8.198;2023-09-12T06:16:46;915.93;;;222.03;;
75156;SDS011;63736;50.076;8.198;2023-09-12T06:19:11;919.03;;;222.53;;
75156;SDS011;63736;50.076;8.198;2023-09-12T06:21:37;922.45;;;221.93;;
75156;SDS011;63736;50.076;8.198;2023-09-12T06:24:15;1113.13;;;274.10;;
75156;SDS011;63736;50.076;8.198;2023-09-12T06:26:42;1071.78;;;259.77;;
75156;SDS011;63736;50.076;8.198;2023-09-12T06:29:07;1053.37;;;253.23;;
75156;SDS011;63736;50.076;8.198;2023-09-12T06:31:33;966.10;;;231.37;;
75156;SDS011;63736;50.076;8.198;2023-09-12T06:33:59;917.27;;;217.53;;
75156;SDS011;63736;50.076;8.198;2023-09-12T06:36:25;907.47;;;215.53;;
75156;SDS011;63736;50.076;8.198;2023-09-12T06:38:51;902.03;;;213.90;;
75156;SDS011;63736;50.076;8.198;2023-09-12T06:41:19;893.92;;;215.10;;
75156;SDS011;63736;50.076;8.198;2023-09-12T06:43:44;861.70;;;205.77;;
75156;SDS011;63736;50.076;8.198;2023-09-12T06:46:10;997.33;;;241.10;;
75156;SDS011;63736;50.076;8.198;2023-09-12T06:48:35;911.93;;;219.90;;
75156;SDS011;63736;50.076;8.198;2023-09-12T06:51:04;906.63;;;218.80;;
75156;SDS011;63736;50.076;8.198;2023-09-12T06:53:30;868.28;;;210.93;;
75156;SDS011;63736;50.076;8.198;2023-09-12T06:55:55;844.73;;;205.67;;
75156;SDS011;63736;50.076;8.198;2023-09-12T06:58:22;837.50;;;204.57;;
75156;SDS011;63736;50.076;8.198;2023-09-12T07:00:48;825.63;;;202.57;;
75156;SDS011;63736;50.076;8.198;2023-09-12T07:03:13;815.90;;;201.27;;
75156;SDS011;63736;50.076;8.198;2023-09-12T07:05:38;818.20;;;203.03;;
75156;SDS011;63736;50.076;8.198;2023-09-12T07:08:05;807.95;;;198.77;;
75156;SDS011;63736;50.076;8.198;2023-09-12T07:10:30;795.17;;;198.33;;
75156;SDS011;63736;50.076;8.198;2023-09-12T07:12:55;770.90;;;191.73;;
75156;SDS011;63736;50.076;8.198;2023-09-12T07:15:21;787.90;;;196.60;;
75156;SDS011;63736;50.076;8.198;2023-09-12T07:17:46;697.30;;;174.20;;
75156;SDS011;63736;50.076;8.198;2023-09-12T07:20:12;696.87;;;177.10;;
75156;SDS011;63736;50.076;8.198;2023-09-12T07:22:38;674.35;;;169.77;;
75156;SDS011;63736;50.076;8.198;2023-09-12T07:25:07;663.33;;;167.27;;
75156;SDS011;63736;50.076;8.198;2023-09-12T07:27:34;654.10;;;166.48;;
75156;SDS011;63736;50.076;8.198;2023-09-12T07:29:59;656.53;;;166.23;;
75156;SDS011;63736;50.076;8.198;2023-09-12T07:32:24;674.27;;;169.27;;
75156;SDS011;63736;50.076;8.198;2023-09-12T07:34:50;741.57;;;186.67;;
75156;SDS011;63736;50.076;8.198;2023-09-12T07:37:15;867.57;;;215.67;;
75156;SDS011;63736;50.076;8.198;2023-09-12T07:39:40;924.80;;;229.37;;
75156;SDS011;63736;50.076;8.198;2023-09-12T07:42:05;915.90;;;227.67;;
75156;SDS011;63736;50.076;8.198;2023-09-12T07:44:31;910.07;;;227.10;;
75156;SDS011;63736;50.076;8.198;2023-09-12T07:46:56;930.57;;;232.87;;
75156;SDS011;63736;50.076;8.198;2023-09-12T07:49:21;950.40;;;237.20;;
75156;SDS011;63736;50.076;8.198;2023-09-12T07:51:47;965.80;;;238.82;;
75156;SDS011;63736;50.076;8.198;2023-09-12T07:54:12;954.70;;;237.60;;
75156;SDS011;63736;50.076;8.198;2023-09-12T07:56:37;959.97;;;238.23;;
75156;SDS011;63736;50.076;8.198;2023-09-12T07:59:03;753.60;;;192.50;;
75156;SDS011;63736;50.076;8.198;2023-09-12T08:01:28;731.13;;;187.60;;
75156;SDS011;63736;50.076;8.198;2023-09-12T08:03:53;717.63;;;184.70;;
75156;SDS011;63736;50.076;8.198;2023-09-12T08:06:19;699.08;;;181.90;;
75156;SDS011;63736;50.076;8.198;2023-09-12T08:08:44;691.67;;;179.03;;
75156;SDS011;63736;50.076;8.198;2023-09-12T08:11:10;704.57;;;185.20;;
75156;SDS011;63736;50.076;8.198;2023-09-12T08:13:35;622.47;;;163.80;;
75156;SDS011;63736;50.076;8.198;2023-09-12T08:16:00;604.20;;;159.27;;
75156;SDS011;63736;50.076;8.198;2023-09-12T08:18:26;595.80;;;156.82;;
75156;SDS011;63736;50.076;8.198;2023-09-12T08:20:54;593.87;;;157.90;;
75156;SDS011;63736;50.076;8.198;2023-09-12T08:23:20;593.90;;;156.83;;
75156;SDS011;63736;50.076;8.198;2023-09-12T08:25:45;594.17;;;156.27;;
75156;SDS011;63736;50.076;8.198;2023-09-12T08:28:10;598.43;;;157.03;;
75156;SDS011;63736;50.076;8.198;2023-09-12T08:30:35;602.87;;;157.77;;
75156;SDS011;63736;50.076;8.198;2023-09-12T08:33:01;602.13;;;158.40;;
75156;SDS011;63736;50.076;8.198;2023-09-12T08:35:29;606.42;;;159.23;;
75156;SDS011;63736;50.076;8.198;2023-09-12T08:37:54;606.07;;;159.27;;
75156;SDS011;63736;50.076;8.198;2023-09-12T08:40:19;601.87;;;160.20;;
75156;SDS011;63736;50.076;8.198;2023-09-12T08:42:45;594.38;;;157.80;;
75156;SDS011;63736;50.076;8.198;2023-09-12T08:45:15;591.00;;;155.87;;
75156;SDS011;63736;50.076;8.198;2023-09-12T08:47:42;583.47;;;155.20;;
75156;SDS011;63736;50.076;8.198;2023-09-12T08:50:12;579.47;;;155.60;;
75156;SDS011;63736;50.076;8.198;2023-09-12T08:52:42;579.85;;;154.23;;
75156;SDS011;63736;50.076;8.198;2023-09-12T08:55:09;575.03;;;153.63;;
75156;SDS011;63736;50.076;8.198;2023-09-12T08:57:36;570.40;;;151.53;;
75156;SDS011;63736;50.076;8.198;2023-09-12T09:00:05;573.20;;;152.52;;
75156;SDS011;63736;50.076;8.198;2023-09-12T09:02:32;567.35;;;153.18;;
75156;SDS011;63736;50.076;8.198;2023-09-12T09:04:59;566.47;;;152.00;;
75156;SDS011;63736;50.076;8.198;2023-09-12T09:07:27;563.90;;;151.80;;
75156;SDS011;63736;50.076;8.198;2023-09-12T09:09:53;562.37;;;151.63;;
75156;SDS011;63736;50.076;8.198;2023-09-12T09:12:21;552.55;;;148.55;;
75156;SDS011;63736;50.076;8.198;2023-09-12T09:14:46;549.07;;;150.30;;
75156;SDS011;63736;50.076;8.198;2023-09-12T09:17:11;553.37;;;148.93;;
75156;SDS011;63736;50.076;8.198;2023-09-12T09:19:42;547.10;;;148.60;;
75156;SDS011;63736;50.076;8.198;2023-09-12T09:22:09;543.08;;;147.40;;
75156;SDS011;63736;50.076;8.198;2023-09-12T09:24:34;539.10;;;149.13;;
75156;SDS011;63736;50.076;8.198;2023-09-12T09:26:59;532.10;;;144.82;;
75156;SDS011;63736;50.076;8.198;2023-09-12T09:29:25;533.87;;;145.67;;
75156;SDS011;63736;50.076;8.198;2023-09-12T09:31:51;529.53;;;144.37;;
75156;SDS011;63736;50.076;8.198;2023-09-12T09:34:17;535.22;;;145.10;;
75156;SDS011;63736;50.076;8.198;2023-09-12T09:36:46;541.15;;;148.45;;
75156;SDS011;63736;50.076;8.198;2023-09-12T09:39:13;536.38;;;146.88;;
75156;SDS011;63736;50.076;8.198;2023-09-12T09:41:39;538.53;;;146.90;;
75156;SDS011;63736;50.076;8.198;2023-09-12T09:44:05;539.13;;;145.80;;
75156;SDS011;63736;50.076;8.198;2023-09-12T09:46:32;543.50;;;145.95;;
75156;SDS011;63736;50.076;8.198;2023-09-12T09:48:58;544.90;;;146.00;;
75156;SDS011;63736;50.076;8.198;2023-09-12T09:51:24;547.25;;;146.77;;
75156;SDS011;63736;50.076;8.198;2023-09-12T09:53:53;553.17;;;149.68;;
75156;SDS011;63736;50.076;8.198;2023-09-12T09:56:23;554.60;;;148.57;;
75156;SDS011;63736;50.076;8.198;2023-09-12T09:58:52;567.50;;;149.53;;
75156;SDS011;63736;50.076;8.198;2023-09-12T10:01:20;565.60;;;148.53;;
75156;SDS011;63736;50.076;8.198;2023-09-12T10:03:47;571.72;;;150.15;;
75156;SDS011;63736;50.076;8.198;2023-09-12T10:06:14;575.17;;;152.68;;
75156;SDS011;63736;50.076;8.198;2023-09-12T10:08:42;578.90;;;151.10;;
75156;SDS011;63736;50.076;8.198;2023-09-12T10:11:16;597.47;;;153.90;;
75156;SDS011;63736;50.076;8.198;2023-09-12T10:13:46;613.73;;;157.27;;
75156;SDS011;63736;50.076;8.198;2023-09-12T10:16:23;631.53;;;161.60;;
75156;SDS011;63736;50.076;8.198;2023-09-12T10:18:55;671.05;;;171.93;;
75156;SDS011;63736;50.076;8.198;2023-09-12T10:21:27;666.60;;;168.32;;
75156;SDS011;63736;50.076;8.198;2023-09-12T10:23:58;707.33;;;177.75;;
75156;SDS011;63736;50.076;8.198;2023-09-12T10:26:24;720.33;;;180.47;;
75156;SDS011;63736;50.076;8.198;2023-09-12T10:28:50;746.20;;;186.80;;
75156;SDS011;63736;50.076;8.198;2023-09-12T10:31:15;799.05;;;200.82;;
75156;SDS011;63736;50.076;8.198;2023-09-12T10:33:41;824.67;;;205.67;;
75156;SDS011;63736;50.076;8.198;2023-09-12T10:36:09;825.35;;;206.32;;
75156;SDS011;63736;50.076;8.198;2023-09-12T10:38:39;843.22;;;210.38;;
75156;SDS011;63736;50.076;8.198;2023-09-12T10:41:08;837.67;;;208.93;;
75156;SDS011;63736;50.076;8.198;2023-09-12T10:43:36;809.45;;;201.07;;
75156;SDS011;63736;50.076;8.198;2023-09-12T10:46:03;800.40;;;199.53;;
75156;SDS011;63736;50.076;8.198;2023-09-12T10:48:29;795.87;;;198.50;;
75156;SDS011;63736;50.076;8.198;2023-09-12T10:50:57;795.00;;;198.05;;
75156;SDS011;63736;50.076;8.198;2023-09-12T10:53:26;792.65;;;199.32;;
75156;SDS011;63736;50.076;8.198;2023-09-12T10:58:33;793.72;;;198.27;;
75156;SDS011;63736;50.076;8.198;2023-09-12T11:01:24;789.70;;;196.57;;
75156;SDS011;63736;50.076;8.198;2023-09-12T11:03:50;789.92;;;195.65;;
75156;SDS011;63736;50.076;8.198;2023-09-12T11:06:19;784.33;;;196.75;;
75156;SDS011;63736;50.076;8.198;2023-09-12T11:09:05;781.78;;;196.18;;
75156;SDS011;63736;50.076;8.198;2023-09-12T11:11:54;782.37;;;195.07;;
75156;SDS011;63736;50.076;8.198;2023-09-12T11:14:20;775.38;;;193.32;;
75156;SDS011;63736;50.076;8.198;2023-09-12T11:19:45;768.90;;;192.53;;
75156;SDS011;63736;50.076;8.198;2023-09-12T11:22:47;767.50;;;190.68;;
75156;SDS011;63736;50.076;8.198;2023-09-12T11:25:25;769.08;;;193.02;;
75156;SDS011;63736;50.076;8.198;2023-09-12T11:30:17;763.67;;;193.33;;
75156;SDS011;63736;50.076;8.198;2023-09-12T11:32:43;758.87;;;189.73;;
75156;SDS011;63736;50.076;8.198;2023-09-12T11:35:10;760.88;;;192.55;;
75156;SDS011;63736;50.076;8.198;2023-09-12T11:37:37;749.55;;;188.05;;
75156;SDS011;63736;50.076;8.198;2023-09-12T11:40:45;748.33;;;189.73;;
75156;SDS011;63736;50.076;8.198;2023-09-12T11:42:57;751.95;;;191.55;;
75156;SDS011;63736;50.076;8.198;2023-09-12T11:45:22;741.03;;;185.90;;
75156;SDS011;63736;50.076;8.198;2023-09-12T11:47:48;737.83;;;185.63;;
75156;SDS011;63736;50.076;8.198;2023-09-12T11:53:04;729.63;;;182.23;;
75156;SDS011;63736;50.076;8.198;2023-09-12T11:55:31;725.97;;;183.65;;
75156;SDS011;63736;50.076;8.198;2023-09-12T11:58:01;725.72;;;185.68;;
75156;SDS011;63736;50.076;8.198;2023-09-12T12:00:28;722.17;;;184.25;;
75156;SDS011;63736;50.076;8.198;2023-09-12T12:02:54;721.27;;;182.90;;
75156;SDS011;63736;50.076;8.198;2023-09-12T12:05:20;720.28;;;181.65;;
75156;SDS011;63736;50.076;8.198;2023-09-12T12:07:46;720.63;;;183.40;;
75156;SDS011;63736;50.076;8.198;2023-09-12T12:10:13;726.20;;;184.18;;
75156;SDS011;63736;50.076;8.198;2023-09-12T12:12:38;724.93;;;181.90;;
75156;SDS011;63736;50.076;8.198;2023-09-12T12:15:05;723.37;;;184.13;;
75156;SDS011;63736;50.076;8.198;2023-09-12T12:17:34;719.83;;;182.65;;
75156;SDS011;63736;50.076;8.198;2023-09-12T12:19:59;717.97;;;180.93;;
75156;SDS011;63736;50.076;8.198;2023-09-12T12:22:25;716.97;;;181.10;;
75156;SDS011;63736;50.076;8.198;2023-09-12T12:24:50;715.83;;;180.53;;
75156;SDS011;63736;50.076;8.198;2023-09-12T12:27:16;720.10;;;182.75;;
75156;SDS011;63736;50.076;8.198;2023-09-12T12:29:43;718.03;;;182.90;;
75156;SDS011;63736;50.076;8.198;2023-09-12T12:32:09;717.90;;;182.02;;
75156;SDS011;63736;50.076;8.198;2023-09-12T12:34:35;717.07;;;181.40;;
75156;SDS011;63736;50.076;8.198;2023-09-12T12:37:01;718.78;;;183.07;;
75156;SDS011;63736;50.076;8.198;2023-09-12T12:39:27;715.83;;;181.83;;
75156;SDS011;63736;50.076;8.198;2023-09-12T12:41:52;714.27;;;181.13;;
75156;SDS011;63736;50.076;8.198;2023-09-12T12:44:18;711.47;;;179.30;;
75156;SDS011;63736;50.076;8.198;2023-09-12T12:47:03;714.88;;;182.50;;
75156;SDS011;63736;50.076;8.198;2023-09-12T12:49:35;717.65;;;182.65;;
75156;SDS011;63736;50.076;8.198;2023-09-12T12:52:02;715.13;;;181.27;;
75156;SDS011;63736;50.076;8.198;2023-09-12T12:54:30;713.58;;;180.38;;
75156;SDS011;63736;50.076;8.198;2023-09-12T12:56:56;708.60;;;180.23;;
75156;SDS011;63736;50.076;8.198;2023-09-12T12:59:22;709.50;;;179.97;;
75156;SDS011;63736;50.076;8.198;2023-09-12T13:01:47;707.17;;;178.63;;
75156;SDS011;63736;50.076;8.198;2023-09-12T13:04:12;715.43;;;180.73;;
75156;SDS011;63736;50.076;8.198;2023-09-12T13:06:38;713.13;;;181.60;;
75156;SDS011;63736;50.076;8.198;2023-09-12T13:09:03;710.37;;;180.17;;
75156;SDS011;63736;50.076;8.198;2023-09-12T13:11:30;712.15;;;181.45;;
75156;SDS011;63736;50.076;8.198;2023-09-12T13:13:58;713.83;;;182.20;;
75156;SDS011;63736;50.076;8.198;2023-09-12T13:16:23;718.60;;;182.73;;
75156;SDS011;63736;50.076;8.198;2023-09-12T13:18:48;715.40;;;182.00;;
75156;SDS011;63736;50.076;8.198;2023-09-12T13:21:14;714.00;;;181.47;;
75156;SDS011;63736;50.076;8.198;2023-09-12T13:23:39;719.30;;;183.70;;
75156;SDS011;63736;50.076;8.198;2023-09-12T13:26:05;721.03;;;184.73;;
75156;SDS011;63736;50.076;8.198;2023-09-12T13:28:32;721.08;;;182.80;;
75156;SDS011;63736;50.076;8.198;2023-09-12T13:30:57;719.77;;;183.37;;
75156;SDS011;63736;50.076;8.198;2023-09-12T13:33:23;724.50;;;183.68;;
75156;SDS011;63736;50.076;8.198;2023-09-12T13:35:48;726.73;;;182.00;;
75156;SDS011;63736;50.076;8.198;2023-09-12T13:38:14;729.03;;;183.68;;
75156;SDS011;63736;50.076;8.198;2023-09-12T13:40:42;725.73;;;182.93;;
75156;SDS011;63736;50.076;8.198;2023-09-12T13:43:08;726.15;;;182.98;;
75156;SDS011;63736;50.076;8.198;2023-09-12T13:45:33;728.57;;;185.03;;
75156;SDS011;63736;50.076;8.198;2023-09-12T13:47:59;724.55;;;182.23;;
75156;SDS011;63736;50.076;8.198;2023-09-12T13:50:26;728.03;;;186.43;;
75156;SDS011;63736;50.076;8.198;2023-09-12T13:52:55;721.95;;;182.70;;
75156;SDS011;63736;50.076;8.198;2023-09-12T13:55:21;722.58;;;182.20;;
75156;SDS011;63736;50.076;8.198;2023-09-12T13:57:47;717.17;;;180.47;;
75156;SDS011;63736;50.076;8.198;2023-09-12T14:00:12;721.77;;;183.37;;
75156;SDS011;63736;50.076;8.198;2023-09-12T14:02:37;716.35;;;180.05;;
75156;SDS011;63736;50.076;8.198;2023-09-12T14:05:03;719.23;;;181.20;;
75156;SDS011;63736;50.076;8.198;2023-09-12T14:07:28;721.37;;;182.43;;
75156;SDS011;63736;50.076;8.198;2023-09-12T14:09:54;722.77;;;183.93;;